Time;durP1;ratioP1;P1;durP2;ratioP2;P2;SDS_P1;SDS_P2;PMS_P1;PMS_P2;Temp;Humidity;BMP_temperature;BMP_pressure;BME280_temperature;BME280_humidity;BME280_pressure;Samples;Min_cycle;Max_cycle;Signal;HPM_P1;HPM_P2
2020/12/25 00:48:42;;;;;;;1.50;1.40;;;3.90;99.90;;;;;;4956654;29;20839;-94
2020/12/25 00:51:12;;;;;;;1.30;1.20;;;3.90;99.90;;;;;;4962707;29;20488;-93
2020/12/25 00:53:39;;;;;;;1.70;1.60;;;3.80;99.90;;;;;;4967791;29;20454;-94
2020/12/25 00:56:05;;;;;;;2.43;1.70;;;3.80;99.90;;;;;;4974068;28;20451;-93
2020/12/25 00:58:31;;;;;;;1.47;1.30;;;3.80;99.90;;;;;;4960681;29;20452;-93
2020/12/25 01:00:58;;;;;;;1.57;1.47;;;3.80;99.90;;;;;;4960339;29;20464;-95
2020/12/25 01:03:24;;;;;;;1.70;1.40;;;3.80;99.90;;;;;;4961556;28;20445;-94
2020/12/25 01:05:52;;;;;;;2.03;1.30;;;3.80;99.90;;;;;;4961152;29;20507;-94
2020/12/25 01:08:19;;;;;;;1.53;1.43;;;3.70;99.90;;;;;;4961406;28;20453;-96
2020/12/25 01:10:45;;;;;;;3.60;1.43;;;3.70;99.90;;;;;;4961527;29;20522;-94
2020/12/25 01:13:12;;;;;;;2.07;1.87;;;3.70;99.90;;;;;;4961151;29;20460;-95
2020/12/25 01:15:38;;;;;;;2.30;2.10;;;3.70;99.90;;;;;;4960140;28;20448;-94
2020/12/25 01:18:04;;;;;;;1.70;1.60;;;3.70;99.90;;;;;;4959932;28;20949;-94
2020/12/25 01:20:32;;;;;;;2.17;1.90;;;3.70;99.90;;;;;;4960455;28;20460;-94
2020/12/25 01:23:00;;;;;;;2.20;2.00;;;3.70;99.90;;;;;;4962323;28;20456;-95
2020/12/25 01:25:27;;;;;;;2.63;1.93;;;3.70;99.90;;;;;;4964866;28;20542;-94
2020/12/25 01:27:53;;;;;;;2.63;2.30;;;3.70;99.90;;;;;;4967011;29;20516;-94
2020/12/25 01:30:20;;;;;;;2.57;2.37;;;3.70;99.90;;;;;;4970128;29;20496;-95
2020/12/25 01:35:32;;;;;;;2.60;2.37;;;3.70;99.90;;;;;;4979506;28;20533;-96
2020/12/25 01:38:00;;;;;;;2.53;2.33;;;3.70;99.90;;;;;;4976273;28;20452;-96
2020/12/25 01:40:27;;;;;;;2.33;2.00;;;3.80;99.90;;;;;;4974245;28;20452;-95
2020/12/25 01:42:54;;;;;;;2.27;2.07;;;3.70;99.90;;;;;;4964729;29;20452;-92
2020/12/25 01:45:20;;;;;;;2.50;2.30;;;3.70;99.90;;;;;;4954737;28;20436;-95
2020/12/25 01:47:46;;;;;;;2.53;2.33;;;3.80;99.90;;;;;;4956721;28;20448;-94
2020/12/25 01:50:14;;;;;;;2.70;2.50;;;3.80;99.90;;;;;;4955102;28;20431;-93
2020/12/25 01:52:41;;;;;;;3.00;2.80;;;3.80;99.90;;;;;;4954947;28;20484;-93
2020/12/25 01:55:10;;;;;;;3.00;2.70;;;3.90;99.90;;;;;;4956202;29;20463;-94
2020/12/25 01:57:36;;;;;;;3.50;3.20;;;3.90;99.90;;;;;;4954921;28;20484;-93
2020/12/25 02:00:06;;;;;;;3.40;3.10;;;3.90;99.90;;;;;;4954697;28;20449;-93
2020/12/25 02:02:32;;;;;;;3.43;3.13;;;3.90;99.90;;;;;;4955382;29;20837;-92
2020/12/25 02:05:00;;;;;;;3.50;3.20;;;3.90;99.90;;;;;;4955512;29;20447;-93
2020/12/25 02:07:26;;;;;;;3.67;3.33;;;4.00;99.90;;;;;;4955088;28;20433;-92
2020/12/25 02:09:53;;;;;;;4.37;3.97;;;4.00;99.90;;;;;;4955148;28;20449;-92
2020/12/25 02:12:20;;;;;;;4.50;4.10;;;4.00;99.90;;;;;;4954923;29;20484;-93
2020/12/25 02:14:46;;;;;;;5.00;4.50;;;4.00;99.90;;;;;;4954423;28;20491;-94
2020/12/25 02:17:13;;;;;;;5.17;4.67;;;4.00;99.90;;;;;;4954892;29;20828;-93
2020/12/25 02:19:40;;;;;;;5.17;4.67;;;4.10;99.90;;;;;;4955252;29;20536;-93
2020/12/25 02:22:14;;;;;;;7.10;5.20;;;4.10;99.90;;;;;;4954564;29;20479;-93
2020/12/25 02:24:40;;;;;;;4.83;4.40;;;4.10;99.90;;;;;;4955103;29;20450;-91
2020/12/25 02:27:07;;;;;;;6.33;5.57;;;4.10;99.90;;;;;;4959902;28;20942;-92
2020/12/25 02:29:33;;;;;;;6.27;5.67;;;4.10;99.90;;;;;;4954808;28;20439;-93
2020/12/25 02:31:59;;;;;;;6.77;6.10;;;4.10;99.90;;;;;;4954286;28;20483;-94
2020/12/25 02:34:28;;;;;;;5.63;5.07;;;4.10;99.90;;;;;;4954404;28;20468;-93
2020/12/25 02:36:54;;;;;;;6.70;6.07;;;4.20;99.90;;;;;;4954244;28;20457;-93
2020/12/25 02:39:21;;;;;;;6.13;5.53;;;4.20;99.90;;;;;;4954366;29;20503;-93
2020/12/25 02:41:48;;;;;;;7.00;6.20;;;4.20;99.90;;;;;;4952129;29;20464;-94
2020/12/25 02:44:14;;;;;;;5.50;4.97;;;4.20;99.90;;;;;;4954631;28;20500;-92
2020/12/25 02:46:40;;;;;;;7.40;6.00;;;4.20;99.90;;;;;;4957740;28;20467;-94
2020/12/25 02:49:14;;;;;;;6.43;5.80;;;4.20;99.90;;;;;;4957545;29;20469;-93
2020/12/25 02:51:40;;;;;;;8.47;6.27;;;4.30;99.90;;;;;;4957591;28;20535;-94
2020/12/25 02:54:06;;;;;;;6.87;6.03;;;4.30;99.90;;;;;;4957803;28;20461;-93
2020/12/25 02:56:43;;;;;;;7.53;6.80;;;4.30;99.90;;;;;;4957378;29;20500;-93
2020/12/25 02:59:10;;;;;;;6.97;6.27;;;4.30;99.90;;;;;;4942155;29;20441;-94
2020/12/25 03:01:36;;;;;;;6.80;6.00;;;4.30;99.90;;;;;;4957583;28;21134;-92
2020/12/25 03:04:02;;;;;;;6.80;5.90;;;4.30;99.90;;;;;;4957763;28;20456;-91
2020/12/25 03:06:47;;;;;;;8.50;6.00;;;4.40;99.90;;;;;;4961388;29;20437;-93
2020/12/25 03:09:15;;;;;;;7.30;6.47;;;4.40;99.90;;;;;;4972629;29;20467;-93
2020/12/25 03:11:48;;;;;;;9.00;6.33;;;4.40;99.90;;;;;;4975715;28;20480;-93
2020/12/25 03:14:14;;;;;;;7.33;6.63;;;4.40;99.90;;;;;;4955656;28;20451;-93
2020/12/25 03:16:49;;;;;;;6.83;6.03;;;4.40;99.90;;;;;;4956710;29;20437;-94
2020/12/25 03:19:15;;;;;;;7.57;6.77;;;4.40;99.90;;;;;;4957752;29;20443;-93
2020/12/25 03:21:49;;;;;;;8.50;7.60;;;4.30;99.90;;;;;;4957427;29;20523;-94
2020/12/25 03:24:19;;;;;;;7.80;6.60;;;4.40;99.90;;;;;;4957343;28;20452;-93
2020/12/25 03:26:48;;;;;;;8.03;6.17;;;4.40;99.90;;;;;;4941389;29;20439;-93
2020/12/25 03:29:14;;;;;;;7.53;6.80;;;4.40;99.90;;;;;;4957424;29;20452;-92
2020/12/25 03:31:40;;;;;;;7.33;6.63;;;4.40;99.90;;;;;;4956651;29;20476;-93
2020/12/25 03:34:06;;;;;;;7.10;6.40;;;4.40;99.90;;;;;;4956784;28;20456;-93
2020/12/25 03:36:35;;;;;;;7.57;6.87;;;4.40;99.90;;;;;;4956593;28;20457;-93
2020/12/25 03:39:01;;;;;;;6.97;6.13;;;4.40;99.90;;;;;;4956981;28;20456;-93
2020/12/25 03:41:38;;;;;;;6.73;6.13;;;4.40;99.90;;;;;;4956532;28;20491;-93
2020/12/25 03:44:05;;;;;;;6.63;6.00;;;4.40;99.90;;;;;;4947754;29;20445;-95
2020/12/25 03:46:35;;;;;;;9.13;6.33;;;4.40;99.90;;;;;;4956138;28;20460;-93
2020/12/25 03:49:04;;;;;;;10.00;7.07;;;4.50;99.90;;;;;;4956049;28;20449;-93
2020/12/25 03:51:30;;;;;;;8.40;7.57;;;4.50;99.90;;;;;;4956032;28;20487;-93
2020/12/25 03:53:57;;;;;;;9.20;7.93;;;4.40;99.90;;;;;;4957454;28;20460;-93
2020/12/25 03:56:23;;;;;;;12.30;7.10;;;4.40;99.90;;;;;;4956833;28;20453;-93
2020/12/25 03:58:50;;;;;;;7.97;7.17;;;4.40;99.90;;;;;;4960258;28;20449;-93
2020/12/25 04:01:18;;;;;;;8.27;6.70;;;4.40;99.90;;;;;;4957425;28;20854;-93
2020/12/25 04:03:44;;;;;;;7.10;6.40;;;4.40;99.90;;;;;;4956495;29;20858;-93
2020/12/25 04:06:10;;;;;;;6.57;5.93;;;4.50;99.90;;;;;;4957099;29;20452;-94
2020/12/25 04:08:37;;;;;;;9.33;7.90;;;4.40;99.90;;;;;;4956385;29;20455;-90
2020/12/25 04:11:03;;;;;;;7.37;6.43;;;4.40;99.90;;;;;;4958364;29;20957;-90
2020/12/25 04:13:29;;;;;;;8.20;6.93;;;4.50;99.90;;;;;;4954768;28;20453;-89
2020/12/25 04:16:00;;;;;;;7.80;6.93;;;4.50;99.90;;;;;;4954923;28;20511;-90
2020/12/25 04:18:27;;;;;;;8.27;7.37;;;4.50;99.90;;;;;;4955520;28;20574;-90
2020/12/25 04:20:53;;;;;;;8.80;7.73;;;4.40;99.90;;;;;;4955021;28;20476;-90
2020/12/25 04:23:19;;;;;;;7.73;6.83;;;4.40;99.90;;;;;;4955577;29;20437;-90
2020/12/25 04:25:45;;;;;;;8.63;7.40;;;4.40;99.90;;;;;;4955660;28;20471;-91
2020/12/25 04:28:11;;;;;;;8.17;7.07;;;4.40;99.90;;;;;;4955157;28;20509;-91
2020/12/25 04:30:37;;;;;;;8.67;6.60;;;4.40;99.90;;;;;;4954812;28;20452;-91
2020/12/25 04:33:04;;;;;;;7.00;6.40;;;4.40;99.90;;;;;;4953801;28;20835;-91
2020/12/25 04:35:31;;;;;;;6.87;6.10;;;4.40;99.90;;;;;;4953673;28;20500;-89
2020/12/25 04:43:03;;;;;;;10.40;7.13;;;4.40;99.90;;;;;;4958260;29;20476;-96
2020/12/25 04:45:29;;;;;;;9.80;7.60;;;4.40;99.90;;;;;;4954625;29;20457;-96
2020/12/25 04:47:56;;;;;;;6.37;5.77;;;4.30;99.90;;;;;;4957996;29;20457;-96
2020/12/25 04:50:23;;;;;;;7.17;6.47;;;4.40;99.90;;;;;;4958347;28;20457;-95
2020/12/25 04:52:50;;;;;;;7.47;6.77;;;4.30;99.90;;;;;;4960263;28;20492;-95
2020/12/25 04:55:16;;;;;;;6.67;5.97;;;4.30;99.90;;;;;;4961512;29;20511;-96
2020/12/25 04:57:43;;;;;;;6.60;5.90;;;4.30;99.90;;;;;;4960625;29;20491;-95
2020/12/25 05:00:18;;;;;;;7.90;7.10;;;4.20;99.90;;;;;;4957786;29;20456;-94
2020/12/25 05:02:47;;;;;;;8.27;5.87;;;4.30;99.90;;;;;;4957676;29;20527;-95
2020/12/25 05:05:15;;;;;;;7.00;5.80;;;4.30;99.90;;;;;;4958013;29;21138;-95
2020/12/25 05:07:42;;;;;;;7.50;6.70;;;4.30;99.90;;;;;;4958516;28;20472;-94
2020/12/25 05:10:09;;;;;;;6.40;5.80;;;4.30;99.90;;;;;;4957509;28;20475;-95
2020/12/25 05:12:36;;;;;;;6.77;6.07;;;4.30;99.90;;;;;;4962518;28;20539;-94
2020/12/25 05:15:10;;;;;;;6.63;5.97;;;4.30;99.90;;;;;;4961000;29;20456;-95
2020/12/25 05:17:38;;;;;;;7.40;6.67;;;4.30;99.90;;;;;;4961243;28;20508;-96
2020/12/25 05:20:05;;;;;;;7.07;6.33;;;4.30;99.90;;;;;;4962140;28;20476;-95
2020/12/25 05:22:31;;;;;;;7.60;6.90;;;4.30;99.90;;;;;;4965937;29;20468;-96
2020/12/25 05:25:01;;;;;;;7.50;6.57;;;4.30;99.90;;;;;;4968671;29;20572;-95
2020/12/25 05:27:29;;;;;;;7.53;6.80;;;4.30;99.90;;;;;;4977759;28;20437;-95
2020/12/25 05:29:59;;;;;;;7.60;6.90;;;4.20;99.90;;;;;;4970910;29;20459;-96
2020/12/25 05:32:29;;;;;;;7.80;7.00;;;4.20;99.90;;;;;;4963485;28;20476;-94
2020/12/25 05:34:57;;;;;;;6.13;5.43;;;4.30;99.90;;;;;;4962546;29;20453;-95
2020/12/25 05:37:32;;;;;;;7.83;6.80;;;4.20;99.90;;;;;;4974735;28;20456;-95
2020/12/25 05:40:00;;;;;;;7.37;6.67;;;4.20;99.90;;;;;;4963147;29;20463;-95
2020/12/25 05:42:28;;;;;;;8.20;7.30;;;4.20;99.90;;;;;;4961421;28;20563;-95
2020/12/25 05:44:54;;;;;;;8.80;7.17;;;4.30;99.90;;;;;;4963877;29;20467;-95
2020/12/25 05:47:21;;;;;;;8.80;7.90;;;4.20;99.90;;;;;;4972299;29;20504;-94
2020/12/25 05:49:47;;;;;;;8.73;7.83;;;4.30;99.90;;;;;;4972166;29;20498;-95
2020/12/25 05:52:14;;;;;;;8.90;7.33;;;4.30;99.90;;;;;;4971756;28;20491;-96
2020/12/25 05:54:42;;;;;;;7.97;7.17;;;4.20;99.90;;;;;;4964707;28;20454;-94
2020/12/25 05:57:09;;;;;;;8.40;7.50;;;4.30;99.90;;;;;;4960101;29;20459;-94
2020/12/25 05:59:36;;;;;;;8.87;7.93;;;4.30;99.90;;;;;;4963148;28;20459;-95
2020/12/25 06:02:04;;;;;;;9.33;8.30;;;4.30;99.90;;;;;;4960659;29;21020;-96
2020/12/25 06:04:32;;;;;;;10.10;8.00;;;4.20;99.90;;;;;;4957273;29;20457;-94
2020/12/25 06:07:00;;;;;;;8.37;7.47;;;4.30;99.90;;;;;;4963524;28;20463;-94
2020/12/25 06:09:30;;;;;;;9.50;8.50;;;4.30;99.90;;;;;;4957412;29;20463;-95
2020/12/25 06:11:57;;;;;;;9.70;8.50;;;4.30;99.90;;;;;;4957520;29;20479;-94
2020/12/25 06:14:24;;;;;;;8.37;7.57;;;4.30;99.90;;;;;;4958649;29;20456;-95
2020/12/25 06:17:00;;;;;;;8.90;8.00;;;4.30;99.90;;;;;;4968738;28;20483;-94
2020/12/25 06:19:35;;;;;;;11.27;7.67;;;4.20;99.90;;;;;;4980454;28;20459;-95
2020/12/25 06:22:09;;;;;;;9.53;8.40;;;4.20;99.90;;;;;;4979927;28;20452;-94
2020/12/25 06:24:38;;;;;;;10.50;8.43;;;4.20;99.90;;;;;;4969078;29;20452;-94
2020/12/25 06:27:05;;;;;;;9.10;8.07;;;4.30;99.90;;;;;;4971425;28;20452;-95
2020/12/25 06:29:32;;;;;;;7.60;6.90;;;4.30;99.90;;;;;;4975155;28;20480;-94
2020/12/25 06:32:01;;;;;;;10.33;8.10;;;4.30;99.90;;;;;;4972272;29;20485;-94
2020/12/25 06:34:44;;;;;;;11.40;9.23;;;4.20;99.90;;;;;;4964973;29;20452;-93
2020/12/25 06:37:13;;;;;;;9.33;8.43;;;4.30;99.90;;;;;;4970348;28;20456;-95
2020/12/25 06:39:47;;;;;;;12.20;8.50;;;4.30;99.90;;;;;;4960302;29;20502;-94
2020/12/25 06:42:14;;;;;;;8.70;7.90;;;4.30;99.90;;;;;;4941173;29;20485;-95
2020/12/25 06:44:47;;;;;;;9.87;8.27;;;4.30;99.90;;;;;;4959512;28;20448;-96
2020/12/25 06:47:34;;;;;;;9.00;7.97;;;4.30;99.90;;;;;;4960115;29;20449;-95
2020/12/25 06:50:07;;;;;;;9.13;7.73;;;4.30;99.90;;;;;;4959914;29;20452;-96
2020/12/25 06:52:51;;;;;;;9.83;8.30;;;4.30;99.90;;;;;;4966593;28;20494;-95
2020/12/25 06:55:20;;;;;;;11.67;8.87;;;4.30;99.90;;;;;;4981237;28;20454;-95
2020/12/25 06:57:46;;;;;;;10.80;8.77;;;4.20;99.90;;;;;;4949641;29;20484;-96
2020/12/25 07:00:12;;;;;;;7.43;6.73;;;4.20;99.90;;;;;;4969206;29;20512;-95
2020/12/25 07:02:41;;;;;;;9.97;8.00;;;4.20;99.90;;;;;;4968835;28;21048;-95
2020/12/25 07:05:08;;;;;;;9.50;7.80;;;4.20;99.90;;;;;;4964231;29;20466;-95
2020/12/25 07:07:35;;;;;;;9.43;8.07;;;4.20;99.90;;;;;;4972499;28;20444;-96
2020/12/25 07:10:06;;;;;;;9.83;8.77;;;4.10;99.90;;;;;;4972415;28;20452;-95
2020/12/25 07:12:33;;;;;;;10.13;7.40;;;4.10;99.90;;;;;;4970816;29;20511;-95
2020/12/25 07:14:59;;;;;;;9.87;8.37;;;4.10;99.90;;;;;;4962851;29;20570;-94
2020/12/25 07:17:26;;;;;;;9.30;8.00;;;4.10;99.90;;;;;;4961944;28;20487;-95
2020/12/25 07:19:53;;;;;;;9.50;7.50;;;4.00;99.90;;;;;;4960997;29;20451;-95
2020/12/25 07:22:20;;;;;;;10.27;8.00;;;4.10;99.90;;;;;;4970465;28;20467;-95
2020/12/25 07:24:47;;;;;;;8.13;7.37;;;4.10;99.90;;;;;;4966429;28;20457;-95
2020/12/25 07:27:14;;;;;;;9.40;7.77;;;4.10;99.90;;;;;;4959657;28;20459;-95
2020/12/25 07:29:43;;;;;;;8.40;7.60;;;4.00;99.90;;;;;;4963109;29;20460;-96
2020/12/25 07:32:12;;;;;;;8.17;6.80;;;4.00;99.90;;;;;;4963678;28;20480;-95
2020/12/25 07:34:39;;;;;;;8.03;7.23;;;4.00;99.90;;;;;;4966201;28;20441;-94
2020/12/25 07:37:09;;;;;;;7.33;6.63;;;4.00;99.90;;;;;;4966156;28;20452;-96
2020/12/25 07:39:36;;;;;;;8.03;7.23;;;4.10;99.90;;;;;;4964157;28;20457;-95
2020/12/25 07:42:02;;;;;;;8.90;7.13;;;4.10;99.90;;;;;;4964667;28;20472;-95
2020/12/25 07:44:29;;;;;;;7.30;6.60;;;4.00;99.90;;;;;;4965956;29;20483;-95
2020/12/25 07:46:55;;;;;;;7.23;6.47;;;3.90;99.90;;;;;;4977207;28;20459;-96
2020/12/25 07:49:21;;;;;;;8.63;7.50;;;4.00;99.90;;;;;;4985365;28;20460;-95
2020/12/25 07:51:49;;;;;;;6.80;6.10;;;4.00;99.90;;;;;;4976089;28;20490;-95
2020/12/25 07:54:17;;;;;;;7.30;6.60;;;4.00;99.90;;;;;;4963313;28;20459;-95
2020/12/25 07:56:43;;;;;;;9.00;7.03;;;4.10;99.90;;;;;;4955242;28;20539;-94
2020/12/25 07:59:10;;;;;;;8.90;8.00;;;4.10;99.90;;;;;;4959223;28;20456;-94
2020/12/25 08:01:37;;;;;;;7.93;7.13;;;4.00;99.90;;;;;;4959276;29;20480;-95
2020/12/25 08:04:05;;;;;;;7.73;6.93;;;4.00;99.90;;;;;;4960496;28;20456;-95
2020/12/25 08:06:33;;;;;;;7.67;6.90;;;4.10;99.90;;;;;;4960685;28;20445;-94
2020/12/25 08:09:23;;;;;;;8.20;7.40;;;4.10;99.90;;;;;;4976103;28;20454;-95
2020/12/25 08:11:52;;;;;;;8.43;7.47;;;4.10;99.90;;;;;;4961746;28;20488;-96
2020/12/25 08:14:22;;;;;;;7.50;6.80;;;4.10;99.90;;;;;;4979188;28;20460;-95
2020/12/25 08:16:49;;;;;;;10.00;8.77;;;4.10;99.90;;;;;;4956492;28;20465;-95
2020/12/25 08:19:18;;;;;;;8.90;7.97;;;4.10;99.90;;;;;;4970077;28;20445;-94
2020/12/25 08:21:44;;;;;;;8.20;7.40;;;4.20;99.90;;;;;;4962534;29;20536;-95
2020/12/25 08:24:11;;;;;;;9.03;8.13;;;4.20;99.90;;;;;;4961482;28;20448;-95
2020/12/25 08:26:40;;;;;;;8.07;7.20;;;4.20;99.90;;;;;;4970299;28;20519;-95
2020/12/25 08:29:07;;;;;;;13.30;8.83;;;4.20;99.90;;;;;;4975516;28;20488;-95
2020/12/25 08:31:35;;;;;;;10.93;9.33;;;4.20;99.90;;;;;;4962634;28;20519;-95
2020/12/25 08:34:02;;;;;;;8.23;7.43;;;4.20;99.90;;;;;;4981788;28;20447;-95
2020/12/25 08:36:28;;;;;;;11.10;10.00;;;4.30;99.90;;;;;;4970265;28;20531;-95
2020/12/25 08:38:55;;;;;;;12.03;9.80;;;4.30;99.90;;;;;;4965322;28;20519;-95
2020/12/25 08:41:26;;;;;;;11.70;10.50;;;4.30;99.90;;;;;;4964756;28;20477;-94
2020/12/25 08:43:54;;;;;;;13.13;10.13;;;4.30;99.90;;;;;;4963033;28;20456;-95
2020/12/25 08:46:22;;;;;;;11.13;9.07;;;4.30;99.90;;;;;;4964670;29;20448;-94
2020/12/25 08:48:52;;;;;;;11.57;9.90;;;4.30;99.90;;;;;;4972290;28;20517;-94
2020/12/25 08:51:19;;;;;;;12.47;10.70;;;4.40;99.90;;;;;;4967266;28;20629;-95
2020/12/25 08:53:53;;;;;;;15.80;13.93;;;4.40;99.90;;;;;;4976900;28;20512;-94
2020/12/25 08:56:21;;;;;;;14.73;11.80;;;4.40;99.90;;;;;;4959688;28;20483;-95
2020/12/25 08:58:59;;;;;;;14.27;11.43;;;4.50;99.90;;;;;;4970144;28;20496;-96
2020/12/25 09:01:27;;;;;;;12.60;11.17;;;4.50;99.90;;;;;;4953362;29;20472;-95
2020/12/25 09:03:53;;;;;;;16.07;12.70;;;4.50;99.90;;;;;;4964328;28;20910;-96
2020/12/25 09:06:20;;;;;;;14.00;12.50;;;4.50;99.90;;;;;;4959709;28;20452;-95
2020/12/25 09:08:46;;;;;;;17.80;14.00;;;4.60;99.90;;;;;;4960162;29;20455;-95
2020/12/25 09:11:14;;;;;;;14.57;11.90;;;4.60;99.90;;;;;;4961667;29;20477;-96
2020/12/25 09:13:41;;;;;;;14.83;12.57;;;4.60;99.90;;;;;;4961983;29;20467;-96
2020/12/25 09:16:09;;;;;;;17.57;13.30;;;4.70;99.90;;;;;;4963441;29;20521;-95
2020/12/25 09:18:36;;;;;;;13.83;12.00;;;4.70;99.90;;;;;;4964711;28;20520;-94
2020/12/25 09:21:03;;;;;;;15.70;12.47;;;4.70;99.90;;;;;;4962542;28;20519;-95
2020/12/25 09:23:30;;;;;;;15.60;11.80;;;4.70;99.90;;;;;;4964816;28;20453;-95
2020/12/25 09:25:58;;;;;;;15.60;12.00;;;4.70;99.90;;;;;;4962965;28;20504;-95
2020/12/25 09:28:25;;;;;;;15.77;12.00;;;4.80;99.90;;;;;;4962339;28;20476;-95
2020/12/25 09:30:52;;;;;;;16.23;13.60;;;4.80;99.90;;;;;;4961335;29;20475;-94
2020/12/25 09:33:19;;;;;;;12.60;10.90;;;4.90;99.90;;;;;;4964244;28;20475;-95
2020/12/25 09:35:46;;;;;;;15.13;12.30;;;4.80;99.90;;;;;;4960821;28;20504;-95
2020/12/25 09:38:12;;;;;;;13.27;10.73;;;4.80;99.90;;;;;;4961659;28;20990;-95
2020/12/25 09:40:39;;;;;;;14.23;11.50;;;4.80;99.90;;;;;;4958567;29;20460;-95
2020/12/25 09:43:05;;;;;;;14.63;11.30;;;4.90;99.90;;;;;;4957685;28;20441;-95
2020/12/25 09:45:32;;;;;;;12.40;10.60;;;5.00;99.90;;;;;;4956101;28;20468;-93
2020/12/25 09:47:58;;;;;;;14.20;10.47;;;4.90;99.90;;;;;;4945473;28;20468;-94
2020/12/25 09:50:25;;;;;;;12.83;11.20;;;5.00;99.90;;;;;;4963012;28;20446;-93
2020/12/25 09:52:51;;;;;;;15.30;11.63;;;5.00;99.90;;;;;;4965120;28;20503;-92
2020/12/25 09:55:18;;;;;;;10.60;9.50;;;5.10;99.90;;;;;;4955395;29;20447;-93
2020/12/25 09:57:45;;;;;;;13.73;9.77;;;5.10;99.90;;;;;;4957245;28;20437;-93
2020/12/25 10:00:13;;;;;;;11.50;9.33;;;5.20;99.90;;;;;;4956024;28;20455;-94
2020/12/25 10:02:40;;;;;;;11.77;9.73;;;5.20;99.90;;;;;;4955561;28;20461;-93
2020/12/25 10:05:08;;;;;;;11.20;9.20;;;5.20;99.90;;;;;;4955538;29;20492;-96
2020/12/25 10:07:36;;;;;;;9.40;8.23;;;5.20;99.90;;;;;;4961341;29;20464;-95
2020/12/25 10:10:03;;;;;;;10.27;9.17;;;5.10;99.90;;;;;;4965581;29;20460;-94
2020/12/25 10:12:30;;;;;;;10.50;8.97;;;5.10;99.90;;;;;;4975982;28;20468;-94
2020/12/25 10:14:56;;;;;;;10.20;7.97;;;5.00;99.90;;;;;;4966645;28;20456;-94
2020/12/25 10:17:23;;;;;;;8.40;7.50;;;5.00;99.90;;;;;;4957122;29;20531;-95
2020/12/25 10:19:50;;;;;;;10.17;8.10;;;5.10;99.90;;;;;;4955889;29;20447;-94
2020/12/25 10:22:17;;;;;;;10.00;7.20;;;5.10;99.90;;;;;;4955205;29;20466;-95
2020/12/25 10:24:44;;;;;;;11.97;6.90;;;5.00;99.90;;;;;;4962797;29;20468;-94
2020/12/25 10:27:10;;;;;;;8.97;6.80;;;5.00;99.90;;;;;;4965095;28;20496;-95
2020/12/25 10:29:37;;;;;;;9.60;8.37;;;5.00;99.90;;;;;;4954984;29;20452;-95
2020/12/25 10:32:03;;;;;;;10.17;8.17;;;5.10;99.90;;;;;;4956218;29;20488;-95
2020/12/25 10:34:29;;;;;;;10.30;7.57;;;5.00;99.90;;;;;;4954841;28;20515;-95
2020/12/25 10:36:55;;;;;;;10.10;7.73;;;5.10;99.90;;;;;;4954797;29;20448;-95
2020/12/25 10:39:22;;;;;;;8.93;7.90;;;5.10;99.90;;;;;;4956197;28;20433;-94
2020/12/25 10:41:49;;;;;;;9.83;8.40;;;5.20;99.90;;;;;;4954423;29;20472;-95
2020/12/25 10:44:15;;;;;;;8.43;6.97;;;5.20;99.90;;;;;;4954630;29;20483;-93
2020/12/25 10:46:41;;;;;;;9.70;7.27;;;5.20;99.90;;;;;;4958720;28;20448;-93
2020/12/25 10:49:08;;;;;;;11.50;9.20;;;5.30;99.90;;;;;;4957535;28;20462;-94
2020/12/25 10:51:34;;;;;;;9.83;8.47;;;5.30;99.90;;;;;;4954273;29;20484;-95
2020/12/25 10:54:00;;;;;;;8.60;7.70;;;5.30;99.90;;;;;;4954455;29;20437;-94
2020/12/25 10:56:28;;;;;;;8.00;7.20;;;5.40;99.90;;;;;;4954820;28;20455;-94
2020/12/25 10:58:57;;;;;;;7.97;6.90;;;5.50;99.90;;;;;;4954717;28;20452;-96
2020/12/25 11:01:27;;;;;;;11.77;8.57;;;5.50;99.90;;;;;;4955989;28;20481;-94
2020/12/25 11:03:54;;;;;;;8.40;7.43;;;5.60;99.90;;;;;;4957472;28;20532;-94
2020/12/25 11:06:29;;;;;;;7.53;6.73;;;5.60;99.90;;;;;;4958211;28;20445;-95
2020/12/25 11:08:56;;;;;;;7.73;6.93;;;5.50;99.90;;;;;;4958849;29;20527;-94
2020/12/25 11:11:25;;;;;;;7.93;7.13;;;5.50;99.90;;;;;;4961740;29;20484;-94
2020/12/25 11:13:54;;;;;;;8.17;6.57;;;5.40;99.90;;;;;;4967229;28;20441;-94
2020/12/25 11:16:26;;;;;;;8.90;6.03;;;5.30;99.90;;;;;;4970765;28;20452;-95
2020/12/25 11:18:52;;;;;;;9.03;6.57;;;5.30;99.90;;;;;;4964272;28;20934;-95
2020/12/25 11:21:20;;;;;;;7.23;6.50;;;5.30;99.90;;;;;;4959369;28;20480;-96
2020/12/25 11:23:46;;;;;;;7.07;5.83;;;5.20;99.90;;;;;;4961225;28;20444;-95
2020/12/25 11:26:20;;;;;;;7.50;6.40;;;5.20;99.90;;;;;;4959605;29;20457;-96
2020/12/25 11:29:03;;;;;;;13.23;7.90;;;5.20;99.90;;;;;;4959952;29;20448;-93
2020/12/25 11:31:31;;;;;;;6.63;5.73;;;5.20;99.90;;;;;;4960713;28;20469;-94
2020/12/25 11:33:58;;;;;;;8.10;6.47;;;5.20;99.90;;;;;;4961422;29;20453;-93
2020/12/25 11:36:26;;;;;;;10.40;7.00;;;5.20;99.90;;;;;;4965110;28;20452;-95
2020/12/25 11:38:53;;;;;;;9.87;6.37;;;5.30;99.90;;;;;;4964475;28;20464;-94
2020/12/25 11:41:23;;;;;;;7.83;7.00;;;5.30;99.90;;;;;;4960620;28;20503;-94
2020/12/25 11:43:50;;;;;;;7.20;6.20;;;5.30;99.90;;;;;;4960238;29;20449;-95
2020/12/25 11:46:20;;;;;;;6.80;6.10;;;5.30;99.90;;;;;;4960103;29;20556;-92
2020/12/25 11:48:49;;;;;;;7.77;6.50;;;5.40;99.90;;;;;;4960682;28;20453;-95
2020/12/25 11:51:17;;;;;;;9.80;8.70;;;5.40;99.90;;;;;;4957915;29;20453;-95
2020/12/25 11:53:44;;;;;;;7.07;6.10;;;5.50;99.90;;;;;;4961397;29;20881;-95
2020/12/25 11:56:10;;;;;;;7.13;5.90;;;5.50;99.90;;;;;;4962459;28;20461;-95
2020/12/25 11:58:37;;;;;;;9.60;7.20;;;5.50;99.90;;;;;;4980793;28;20448;-95
2020/12/25 12:01:04;;;;;;;12.67;7.23;;;5.40;99.90;;;;;;4965008;28;20890;-96
2020/12/25 12:03:30;;;;;;;8.90;6.40;;;5.40;99.90;;;;;;4960301;29;20536;-96
2020/12/25 12:05:58;;;;;;;8.83;6.80;;;5.40;99.90;;;;;;4960024;29;20942;-95
2020/12/25 12:08:24;;;;;;;7.57;6.70;;;5.40;99.90;;;;;;4977706;28;20821;-95
2020/12/25 12:10:51;;;;;;;8.63;6.83;;;5.40;99.90;;;;;;4972164;28;20468;-95
2020/12/25 12:13:17;;;;;;;5.40;4.93;;;5.40;99.90;;;;;;4977511;28;20476;-96
2020/12/25 12:15:44;;;;;;;6.73;5.70;;;5.40;99.90;;;;;;4963311;28;20484;-95
2020/12/25 12:18:10;;;;;;;5.70;5.10;;;5.50;99.90;;;;;;4962309;28;20449;-94
2020/12/25 12:20:37;;;;;;;6.33;5.70;;;5.60;99.90;;;;;;4961108;29;20449;-95
2020/12/25 12:23:05;;;;;;;6.23;5.00;;;5.50;99.90;;;;;;4969041;29;20488;-94
2020/12/25 12:25:31;;;;;;;7.07;5.83;;;5.50;99.90;;;;;;4970161;29;20468;-94
2020/12/25 12:27:58;;;;;;;5.17;4.53;;;5.50;99.90;;;;;;4973713;28;20441;-95
2020/12/25 12:30:24;;;;;;;5.77;5.10;;;5.40;99.90;;;;;;4978409;28;20448;-91
2020/12/25 12:32:50;;;;;;;7.10;4.80;;;5.40;99.90;;;;;;4956785;28;20484;-91
2020/12/25 12:35:17;;;;;;;5.57;4.93;;;5.40;99.90;;;;;;4954477;28;20445;-92
2020/12/25 12:37:44;;;;;;;6.90;5.20;;;5.40;99.90;;;;;;4962979;28;20493;-91
2020/12/25 12:40:17;;;;;;;7.77;7.17;;;5.40;99.90;;;;;;4955199;28;20453;-90
2020/12/25 12:42:44;;;;;;;4.70;4.10;;;5.40;99.90;;;;;;4954777;29;20476;-91
2020/12/25 12:45:17;;;;;;;5.73;5.10;;;5.40;99.90;;;;;;4954090;28;20490;-90
2020/12/25 12:47:47;;;;;;;5.23;4.83;;;5.50;99.90;;;;;;4957633;28;20452;-95
2020/12/25 12:50:14;;;;;;;6.40;5.40;;;5.50;99.90;;;;;;4961917;29;20863;-94
2020/12/25 12:52:40;;;;;;;5.37;4.60;;;5.40;99.90;;;;;;4960138;28;20572;-94
2020/12/25 12:55:30;;;;;;;6.03;5.07;;;5.40;99.90;;;;;;4961745;28;20544;-94
2020/12/25 12:57:56;;;;;;;5.23;4.70;;;5.30;99.90;;;;;;4961236;29;20457;-94
2020/12/25 13:00:25;;;;;;;6.20;5.20;;;5.30;99.90;;;;;;4975370;28;20445;-94
2020/12/25 13:02:52;;;;;;;6.47;5.67;;;5.30;99.90;;;;;;4967861;29;20508;-94
2020/12/25 13:05:21;;;;;;;5.97;4.93;;;5.30;99.90;;;;;;4964085;29;20453;-95
2020/12/25 13:07:51;;;;;;;5.70;5.27;;;5.30;99.90;;;;;;4962776;28;20453;-95
2020/12/25 13:10:18;;;;;;;6.87;5.13;;;5.30;99.90;;;;;;4963274;28;20490;-95
2020/12/25 13:12:45;;;;;;;5.30;4.80;;;5.20;99.90;;;;;;4962686;29;20481;-93
2020/12/25 13:15:12;;;;;;;5.50;4.97;;;5.20;99.90;;;;;;4961069;29;20457;-95
2020/12/25 13:17:38;;;;;;;8.00;5.23;;;5.20;99.90;;;;;;4964367;29;20565;-95
2020/12/25 13:20:05;;;;;;;6.30;5.00;;;5.10;99.90;;;;;;4963336;29;20457;-94
2020/12/25 13:22:31;;;;;;;7.50;4.73;;;5.00;99.90;;;;;;4961539;28;20465;-95
2020/12/25 13:24:58;;;;;;;5.60;5.10;;;5.00;99.90;;;;;;4969945;28;20480;-94
2020/12/25 13:27:24;;;;;;;6.53;5.03;;;5.00;99.90;;;;;;4962135;28;20631;-94
2020/12/25 13:29:52;;;;;;;5.27;4.77;;;5.00;99.90;;;;;;4963128;28;20457;-96
2020/12/25 13:32:19;;;;;;;6.63;5.10;;;4.90;99.90;;;;;;4961855;28;20491;-95
2020/12/25 13:34:45;;;;;;;4.80;4.30;;;5.00;99.90;;;;;;4960904;29;20449;-95
2020/12/25 13:37:22;;;;;;;8.90;4.80;;;5.00;99.90;;;;;;4960940;28;20457;-96
2020/12/25 13:39:48;;;;;;;4.87;4.47;;;5.00;99.90;;;;;;4963672;28;20451;-94
2020/12/25 13:42:15;;;;;;;5.17;4.30;;;5.00;99.90;;;;;;4964901;28;20480;-94
2020/12/25 13:44:41;;;;;;;4.87;4.17;;;5.00;99.90;;;;;;4966970;28;20464;-95
2020/12/25 13:47:09;;;;;;;4.40;4.00;;;5.00;99.90;;;;;;4965522;28;20453;-96
2020/12/25 13:49:35;;;;;;;5.33;4.13;;;5.00;99.90;;;;;;4968447;28;20440;-95
2020/12/25 13:52:01;;;;;;;5.20;4.70;;;5.10;99.90;;;;;;4970518;28;20575;-96